sensor_id;sensor_type;location;lat;lon;timestamp;P1;durP1;ratioP1;P2;durP2;ratioP2
6406;SDS011;3236;51.022;6.818;2023-02-18T00:01:58;17.58;;;10.93;;
6406;SDS011;3236;51.022;6.818;2023-02-18T00:04:25;17.48;;;10.10;;
6406;SDS011;3236;51.022;6.818;2023-02-18T00:06:53;13.82;;;8.10;;
6406;SDS011;3236;51.022;6.818;2023-02-18T00:09:20;14.43;;;8.57;;
6406;SDS011;3236;51.022;6.818;2023-02-18T00:11:47;22.83;;;12.02;;
6406;SDS011;3236;51.022;6.818;2023-02-18T00:14:15;17.63;;;10.93;;
6406;SDS011;3236;51.022;6.818;2023-02-18T00:16:42;19.15;;;10.35;;
6406;SDS011;3236;51.022;6.818;2023-02-18T00:19:11;30.35;;;15.48;;
6406;SDS011;3236;51.022;6.818;2023-02-18T00:21:43;23.58;;;14.52;;
6406;SDS011;3236;51.022;6.818;2023-02-18T00:24:12;26.42;;;13.48;;
6406;SDS011;3236;51.022;6.818;2023-02-18T00:26:44;17.88;;;11.18;;
6406;SDS011;3236;51.022;6.818;2023-02-18T00:29:11;16.90;;;10.32;;
6406;SDS011;3236;51.022;6.818;2023-02-18T00:31:38;26.70;;;13.40;;
6406;SDS011;3236;51.022;6.818;2023-02-18T00:34:06;18.13;;;10.68;;
6406;SDS011;3236;51.022;6.818;2023-02-18T00:36:33;20.02;;;11.93;;
6406;SDS011;3236;51.022;6.818;2023-02-18T00:39:02;18.88;;;9.23;;
6406;SDS011;3236;51.022;6.818;2023-02-18T00:41:31;20.38;;;11.48;;
6406;SDS011;3236;51.022;6.818;2023-02-18T00:44:00;14.98;;;9.70;;
6406;SDS011;3236;51.022;6.818;2023-02-18T00:46:28;15.23;;;8.77;;
6406;SDS011;3236;51.022;6.818;2023-02-18T00:48:55;12.52;;;8.30;;
6406;SDS011;3236;51.022;6.818;2023-02-18T00:51:22;17.00;;;9.65;;
6406;SDS011;3236;51.022;6.818;2023-02-18T00:53:50;16.33;;;10.02;;
6406;SDS011;3236;51.022;6.818;2023-02-18T00:56:20;17.40;;;10.60;;
6406;SDS011;3236;51.022;6.818;2023-02-18T00:58:49;17.98;;;9.77;;
6406;SDS011;3236;51.022;6.818;2023-02-18T01:01:17;14.30;;;7.55;;
6406;SDS011;3236;51.022;6.818;2023-02-18T01:03:45;15.93;;;9.93;;
6406;SDS011;3236;51.022;6.818;2023-02-18T01:06:12;17.60;;;9.23;;
6406;SDS011;3236;51.022;6.818;2023-02-18T01:08:39;17.27;;;9.48;;
6406;SDS011;3236;51.022;6.818;2023-02-18T01:11:07;17.60;;;11.10;;
6406;SDS011;3236;51.022;6.818;2023-02-18T01:13:36;14.98;;;8.95;;
6406;SDS011;3236;51.022;6.818;2023-02-18T01:16:07;15.32;;;8.98;;
6406;SDS011;3236;51.022;6.818;2023-02-18T01:18:34;13.30;;;8.27;;
6406;SDS011;3236;51.022;6.818;2023-02-18T01:21:02;13.10;;;7.50;;
6406;SDS011;3236;51.022;6.818;2023-02-18T01:23:32;14.48;;;9.50;;
6406;SDS011;3236;51.022;6.818;2023-02-18T01:25:59;14.00;;;8.63;;
6406;SDS011;3236;51.022;6.818;2023-02-18T01:28:26;11.48;;;6.82;;
6406;SDS011;3236;51.022;6.818;2023-02-18T01:30:53;11.35;;;7.35;;
6406;SDS011;3236;51.022;6.818;2023-02-18T01:33:21;10.02;;;6.55;;
6406;SDS011;3236;51.022;6.818;2023-02-18T01:35:48;11.63;;;6.32;;
6406;SDS011;3236;51.022;6.818;2023-02-18T01:38:18;11.13;;;7.13;;
6406;SDS011;3236;51.022;6.818;2023-02-18T01:40:46;11.48;;;6.43;;
6406;SDS011;3236;51.022;6.818;2023-02-18T01:43:15;11.73;;;5.88;;
6406;SDS011;3236;51.022;6.818;2023-02-18T01:45:50;9.35;;;6.03;;
6406;SDS011;3236;51.022;6.818;2023-02-18T01:48:25;12.20;;;6.07;;
6406;SDS011;3236;51.022;6.818;2023-02-18T01:50:56;13.20;;;7.32;;
6406;SDS011;3236;51.022;6.818;2023-02-18T01:55:56;16.83;;;9.63;;
6406;SDS011;3236;51.022;6.818;2023-02-18T01:58:24;20.17;;;10.10;;
6406;SDS011;3236;51.022;6.818;2023-02-18T02:00:51;24.42;;;11.13;;
6406;SDS011;3236;51.022;6.818;2023-02-18T02:03:18;8.15;;;5.68;;
6406;SDS011;3236;51.022;6.818;2023-02-18T02:05:47;11.80;;;6.60;;
6406;SDS011;3236;51.022;6.818;2023-02-18T02:08:14;9.98;;;5.32;;
6406;SDS011;3236;51.022;6.818;2023-02-18T02:10:45;9.18;;;5.50;;
6406;SDS011;3236;51.022;6.818;2023-02-18T02:13:28;7.60;;;5.97;;
6406;SDS011;3236;51.022;6.818;2023-02-18T02:16:01;9.65;;;5.35;;
6406;SDS011;3236;51.022;6.818;2023-02-18T02:18:38;10.02;;;6.32;;
6406;SDS011;3236;51.022;6.818;2023-02-18T02:21:35;8.02;;;5.18;;
6406;SDS011;3236;51.022;6.818;2023-02-18T02:24:28;8.65;;;5.70;;
6406;SDS011;3236;51.022;6.818;2023-02-18T02:27:03;9.50;;;4.70;;
6406;SDS011;3236;51.022;6.818;2023-02-18T02:32:57;12.50;;;7.13;;
6406;SDS011;3236;51.022;6.818;2023-02-18T02:35:57;13.40;;;7.47;;
6406;SDS011;3236;51.022;6.818;2023-02-18T02:38:29;13.40;;;7.90;;
6406;SDS011;3236;51.022;6.818;2023-02-18T02:41:01;12.90;;;7.47;;
6406;SDS011;3236;51.022;6.818;2023-02-18T02:43:42;13.43;;;6.95;;
6406;SDS011;3236;51.022;6.818;2023-02-18T02:46:18;11.25;;;6.82;;
6406;SDS011;3236;51.022;6.818;2023-02-18T02:48:52;10.45;;;7.00;;
6406;SDS011;3236;51.022;6.818;2023-02-18T02:51:29;12.57;;;6.53;;
6406;SDS011;3236;51.022;6.818;2023-02-18T02:54:08;12.20;;;7.00;;
6406;SDS011;3236;51.022;6.818;2023-02-18T02:56:38;14.05;;;7.63;;
6406;SDS011;3236;51.022;6.818;2023-02-18T02:59:08;12.27;;;7.53;;
6406;SDS011;3236;51.022;6.818;2023-02-18T03:01:40;13.57;;;7.20;;
6406;SDS011;3236;51.022;6.818;2023-02-18T03:04:21;12.27;;;7.47;;
6406;SDS011;3236;51.022;6.818;2023-02-18T03:12:32;16.02;;;8.60;;
6406;SDS011;3236;51.022;6.818;2023-02-18T03:15:04;17.30;;;10.05;;
6406;SDS011;3236;51.022;6.818;2023-02-18T03:17:39;13.95;;;8.52;;
6406;SDS011;3236;51.022;6.818;2023-02-18T03:20:12;10.90;;;7.22;;
6406;SDS011;3236;51.022;6.818;2023-02-18T03:22:45;14.20;;;6.90;;
6406;SDS011;3236;51.022;6.818;2023-02-18T03:25:17;11.50;;;7.10;;
6406;SDS011;3236;51.022;6.818;2023-02-18T03:30:17;10.02;;;5.65;;
6406;SDS011;3236;51.022;6.818;2023-02-18T03:32:46;6.77;;;3.80;;
6406;SDS011;3236;51.022;6.818;2023-02-18T03:35:18;11.68;;;5.28;;
6406;SDS011;3236;51.022;6.818;2023-02-18T03:37:47;7.57;;;4.40;;
6406;SDS011;3236;51.022;6.818;2023-02-18T03:40:20;8.60;;;5.40;;
6406;SDS011;3236;51.022;6.818;2023-02-18T03:42:48;7.63;;;4.35;;
6406;SDS011;3236;51.022;6.818;2023-02-18T03:45:15;9.95;;;4.57;;
6406;SDS011;3236;51.022;6.818;2023-02-18T03:47:42;6.05;;;4.10;;
6406;SDS011;3236;51.022;6.818;2023-02-18T03:50:10;7.72;;;4.13;;
6406;SDS011;3236;51.022;6.818;2023-02-18T03:52:37;7.80;;;4.68;;
6406;SDS011;3236;51.022;6.818;2023-02-18T03:55:08;7.38;;;4.15;;
6406;SDS011;3236;51.022;6.818;2023-02-18T04:00:06;5.60;;;3.45;;
6406;SDS011;3236;51.022;6.818;2023-02-18T04:02:37;5.53;;;3.13;;
6406;SDS011;3236;51.022;6.818;2023-02-18T04:05:05;4.35;;;2.92;;
6406;SDS011;3236;51.022;6.818;2023-02-18T04:07:32;4.88;;;3.03;;
6406;SDS011;3236;51.022;6.818;2023-02-18T04:09:59;4.72;;;2.00;;
6406;SDS011;3236;51.022;6.818;2023-02-18T04:12:28;4.38;;;2.03;;
6406;SDS011;3236;51.022;6.818;2023-02-18T04:14:55;2.63;;;1.40;;
6406;SDS011;3236;51.022;6.818;2023-02-18T04:17:22;1.60;;;1.30;;
6406;SDS011;3236;51.022;6.818;2023-02-18T04:19:49;2.05;;;1.55;;
6406;SDS011;3236;51.022;6.818;2023-02-18T04:22:16;2.85;;;1.70;;
6406;SDS011;3236;51.022;6.818;2023-02-18T04:24:43;3.10;;;2.10;;
6406;SDS011;3236;51.022;6.818;2023-02-18T04:27:10;3.10;;;2.28;;
6406;SDS011;3236;51.022;6.818;2023-02-18T04:29:38;1.67;;;1.23;;
6406;SDS011;3236;51.022;6.818;2023-02-18T04:32:06;3.22;;;1.77;;
6406;SDS011;3236;51.022;6.818;2023-02-18T04:34:33;2.65;;;2.08;;
6406;SDS011;3236;51.022;6.818;2023-02-18T04:37:00;2.13;;;1.83;;
6406;SDS011;3236;51.022;6.818;2023-02-18T04:39:27;3.63;;;1.65;;
6406;SDS011;3236;51.022;6.818;2023-02-18T04:41:54;1.70;;;1.42;;
6406;SDS011;3236;51.022;6.818;2023-02-18T04:44:21;2.85;;;2.25;;
6406;SDS011;3236;51.022;6.818;2023-02-18T04:46:49;1.40;;;1.25;;
6406;SDS011;3236;51.022;6.818;2023-02-18T04:49:16;3.15;;;1.50;;
6406;SDS011;3236;51.022;6.818;2023-02-18T04:51:43;2.20;;;1.75;;
6406;SDS011;3236;51.022;6.818;2023-02-18T04:54:10;7.35;;;2.28;;
6406;SDS011;3236;51.022;6.818;2023-02-18T04:56:40;5.43;;;2.33;;
6406;SDS011;3236;51.022;6.818;2023-02-18T04:59:07;2.47;;;1.60;;
6406;SDS011;3236;51.022;6.818;2023-02-18T05:01:35;3.00;;;2.50;;
6406;SDS011;3236;51.022;6.818;2023-02-18T05:04:04;5.10;;;2.70;;
6406;SDS011;3236;51.022;6.818;2023-02-18T05:06:30;4.38;;;2.65;;
6406;SDS011;3236;51.022;6.818;2023-02-18T05:09:00;4.30;;;2.15;;
6406;SDS011;3236;51.022;6.818;2023-02-18T05:11:27;3.42;;;2.50;;
6406;SDS011;3236;51.022;6.818;2023-02-18T05:14:01;3.90;;;2.72;;
6406;SDS011;3236;51.022;6.818;2023-02-18T05:16:28;2.45;;;1.80;;
6406;SDS011;3236;51.022;6.818;2023-02-18T05:18:55;4.65;;;2.83;;
6406;SDS011;3236;51.022;6.818;2023-02-18T05:21:24;6.50;;;3.53;;
6406;SDS011;3236;51.022;6.818;2023-02-18T05:23:51;6.43;;;3.28;;
6406;SDS011;3236;51.022;6.818;2023-02-18T05:26:18;4.78;;;3.03;;
6406;SDS011;3236;51.022;6.818;2023-02-18T05:28:45;5.75;;;3.85;;
6406;SDS011;3236;51.022;6.818;2023-02-18T05:31:12;7.18;;;4.40;;
6406;SDS011;3236;51.022;6.818;2023-02-18T05:33:39;5.18;;;4.03;;
6406;SDS011;3236;51.022;6.818;2023-02-18T05:36:06;8.45;;;4.85;;
6406;SDS011;3236;51.022;6.818;2023-02-18T05:38:35;6.00;;;3.88;;
6406;SDS011;3236;51.022;6.818;2023-02-18T05:41:02;8.65;;;4.35;;
6406;SDS011;3236;51.022;6.818;2023-02-18T05:43:29;9.07;;;5.20;;
6406;SDS011;3236;51.022;6.818;2023-02-18T05:46:16;3.83;;;2.88;;
6406;SDS011;3236;51.022;6.818;2023-02-18T05:48:43;3.40;;;2.83;;
6406;SDS011;3236;51.022;6.818;2023-02-18T05:51:10;6.88;;;3.83;;
6406;SDS011;3236;51.022;6.818;2023-02-18T05:53:39;4.00;;;2.47;;
6406;SDS011;3236;51.022;6.818;2023-02-18T05:56:06;4.43;;;2.78;;
6406;SDS011;3236;51.022;6.818;2023-02-18T05:58:33;8.27;;;3.03;;
6406;SDS011;3236;51.022;6.818;2023-02-18T06:01:03;4.70;;;3.03;;
6406;SDS011;3236;51.022;6.818;2023-02-18T06:03:30;3.67;;;2.55;;
6406;SDS011;3236;51.022;6.818;2023-02-18T06:05:57;3.20;;;2.30;;
6406;SDS011;3236;51.022;6.818;2023-02-18T06:08:24;2.97;;;2.08;;
6406;SDS011;3236;51.022;6.818;2023-02-18T06:10:52;3.70;;;2.63;;
6406;SDS011;3236;51.022;6.818;2023-02-18T06:13:20;3.40;;;2.90;;
6406;SDS011;3236;51.022;6.818;2023-02-18T06:15:48;5.35;;;2.80;;
6406;SDS011;3236;51.022;6.818;2023-02-18T06:18:15;2.90;;;1.98;;
6406;SDS011;3236;51.022;6.818;2023-02-18T06:20:42;3.38;;;1.67;;
6406;SDS011;3236;51.022;6.818;2023-02-18T06:23:09;4.47;;;2.22;;
6406;SDS011;3236;51.022;6.818;2023-02-18T06:25:36;2.38;;;1.75;;
6406;SDS011;3236;51.022;6.818;2023-02-18T06:28:05;2.17;;;1.70;;
6406;SDS011;3236;51.022;6.818;2023-02-18T06:30:32;3.10;;;2.38;;
6406;SDS011;3236;51.022;6.818;2023-02-18T06:32:59;3.25;;;1.90;;
6406;SDS011;3236;51.022;6.818;2023-02-18T06:35:29;1.33;;;1.00;;
6406;SDS011;3236;51.022;6.818;2023-02-18T06:37:56;1.17;;;1.08;;
6406;SDS011;3236;51.022;6.818;2023-02-18T06:40:24;1.27;;;1.10;;
6406;SDS011;3236;51.022;6.818;2023-02-18T06:42:50;1.58;;;1.00;;
6406;SDS011;3236;51.022;6.818;2023-02-18T06:45:19;1.23;;;0.90;;
6406;SDS011;3236;51.022;6.818;2023-02-18T06:47:46;1.10;;;0.75;;
6406;SDS011;3236;51.022;6.818;2023-02-18T06:50:13;2.28;;;1.17;;
6406;SDS011;3236;51.022;6.818;2023-02-18T06:52:41;1.58;;;1.02;;
6406;SDS011;3236;51.022;6.818;2023-02-18T06:55:08;1.05;;;0.90;;
6406;SDS011;3236;51.022;6.818;2023-02-18T06:57:35;0.82;;;0.75;;
6406;SDS011;3236;51.022;6.818;2023-02-18T07:00:03;0.70;;;0.70;;
6406;SDS011;3236;51.022;6.818;2023-02-18T07:02:32;0.95;;;0.95;;
6406;SDS011;3236;51.022;6.818;2023-02-18T07:04:59;0.98;;;0.77;;
6406;SDS011;3236;51.022;6.818;2023-02-18T07:07:26;0.82;;;0.82;;
6406;SDS011;3236;51.022;6.818;2023-02-18T07:09:53;0.47;;;0.47;;
6406;SDS011;3236;51.022;6.818;2023-02-18T07:12:20;0.50;;;0.50;;
6406;SDS011;3236;51.022;6.818;2023-02-18T07:14:47;0.85;;;0.70;;
6406;SDS011;3236;51.022;6.818;2023-02-18T07:17:14;1.50;;;1.13;;
6406;SDS011;3236;51.022;6.818;2023-02-18T07:19:42;0.80;;;0.70;;
6406;SDS011;3236;51.022;6.818;2023-02-18T07:22:12;1.25;;;1.08;;
6406;SDS011;3236;51.022;6.818;2023-02-18T07:24:45;1.05;;;0.70;;
6406;SDS011;3236;51.022;6.818;2023-02-18T07:27:16;1.58;;;1.10;;
6406;SDS011;3236;51.022;6.818;2023-02-18T07:29:43;1.55;;;1.10;;
6406;SDS011;3236;51.022;6.818;2023-02-18T07:32:11;1.13;;;1.02;;
6406;SDS011;3236;51.022;6.818;2023-02-18T07:34:46;0.90;;;0.73;;
6406;SDS011;3236;51.022;6.818;2023-02-18T07:37:13;0.80;;;0.80;;
6406;SDS011;3236;51.022;6.818;2023-02-18T07:39:40;0.93;;;0.60;;
6406;SDS011;3236;51.022;6.818;2023-02-18T07:42:14;0.68;;;0.68;;
6406;SDS011;3236;51.022;6.818;2023-02-18T07:44:41;1.08;;;0.77;;
6406;SDS011;3236;51.022;6.818;2023-02-18T07:47:09;1.50;;;1.40;;
6406;SDS011;3236;51.022;6.818;2023-02-18T07:49:39;1.33;;;1.00;;
6406;SDS011;3236;51.022;6.818;2023-02-18T07:52:09;3.60;;;1.10;;
6406;SDS011;3236;51.022;6.818;2023-02-18T07:54:39;1.35;;;1.17;;
6406;SDS011;3236;51.022;6.818;2023-02-18T07:57:06;1.27;;;1.17;;
6406;SDS011;3236;51.022;6.818;2023-02-18T07:59:33;1.88;;;1.38;;
6406;SDS011;3236;51.022;6.818;2023-02-18T08:02:01;3.80;;;1.33;;
6406;SDS011;3236;51.022;6.818;2023-02-18T08:04:29;3.72;;;1.23;;
6406;SDS011;3236;51.022;6.818;2023-02-18T08:06:56;1.05;;;0.80;;
6406;SDS011;3236;51.022;6.818;2023-02-18T08:09:24;1.95;;;1.10;;
6406;SDS011;3236;51.022;6.818;2023-02-18T08:11:51;2.72;;;1.73;;
6406;SDS011;3236;51.022;6.818;2023-02-18T08:14:19;6.70;;;1.85;;
6406;SDS011;3236;51.022;6.818;2023-02-18T08:16:46;3.30;;;1.42;;
6406;SDS011;3236;51.022;6.818;2023-02-18T08:19:13;3.83;;;0.80;;
6406;SDS011;3236;51.022;6.818;2023-02-18T08:21:40;5.20;;;1.88;;
6406;SDS011;3236;51.022;6.818;2023-02-18T08:24:13;4.63;;;2.00;;
6406;SDS011;3236;51.022;6.818;2023-02-18T08:26:42;6.78;;;1.88;;
6406;SDS011;3236;51.022;6.818;2023-02-18T08:29:09;2.38;;;1.35;;
6406;SDS011;3236;51.022;6.818;2023-02-18T08:31:36;6.50;;;2.17;;
6406;SDS011;3236;51.022;6.818;2023-02-18T08:34:03;6.05;;;2.20;;
6406;SDS011;3236;51.022;6.818;2023-02-18T08:36:31;3.70;;;2.13;;
6406;SDS011;3236;51.022;6.818;2023-02-18T08:38:58;8.35;;;2.42;;
6406;SDS011;3236;51.022;6.818;2023-02-18T08:41:25;10.13;;;3.92;;
6406;SDS011;3236;51.022;6.818;2023-02-18T08:43:54;4.68;;;1.77;;
6406;SDS011;3236;51.022;6.818;2023-02-18T08:46:21;3.33;;;1.48;;
6406;SDS011;3236;51.022;6.818;2023-02-18T08:48:48;1.73;;;1.45;;
6406;SDS011;3236;51.022;6.818;2023-02-18T08:51:16;4.75;;;2.33;;
6406;SDS011;3236;51.022;6.818;2023-02-18T08:53:44;7.45;;;2.03;;
6406;SDS011;3236;51.022;6.818;2023-02-18T08:56:13;3.38;;;1.35;;
6406;SDS011;3236;51.022;6.818;2023-02-18T08:58:41;7.70;;;2.00;;
6406;SDS011;3236;51.022;6.818;2023-02-18T09:01:12;7.45;;;1.90;;
6406;SDS011;3236;51.022;6.818;2023-02-18T09:03:39;3.55;;;1.17;;
6406;SDS011;3236;51.022;6.818;2023-02-18T09:06:06;4.47;;;2.22;;
6406;SDS011;3236;51.022;6.818;2023-02-18T09:08:34;4.15;;;1.75;;
6406;SDS011;3236;51.022;6.818;2023-02-18T09:11:01;8.27;;;2.17;;
6406;SDS011;3236;51.022;6.818;2023-02-18T09:13:29;7.05;;;2.17;;
6406;SDS011;3236;51.022;6.818;2023-02-18T09:15:58;6.88;;;2.30;;
6406;SDS011;3236;51.022;6.818;2023-02-18T09:18:40;13.55;;;3.88;;
6406;SDS011;3236;51.022;6.818;2023-02-18T09:21:07;11.70;;;3.00;;
6406;SDS011;3236;51.022;6.818;2023-02-18T09:23:36;10.10;;;2.55;;
6406;SDS011;3236;51.022;6.818;2023-02-18T09:26:03;11.32;;;2.20;;
6406;SDS011;3236;51.022;6.818;2023-02-18T09:28:31;5.22;;;1.95;;
6406;SDS011;3236;51.022;6.818;2023-02-18T09:31:02;2.60;;;1.33;;
6406;SDS011;3236;51.022;6.818;2023-02-18T09:33:30;5.97;;;1.88;;
6406;SDS011;3236;51.022;6.818;2023-02-18T09:36:02;8.37;;;1.97;;
6406;SDS011;3236;51.022;6.818;2023-02-18T09:38:30;6.80;;;2.70;;
6406;SDS011;3236;51.022;6.818;2023-02-18T09:40:58;4.30;;;1.58;;
6406;SDS011;3236;51.022;6.818;2023-02-18T09:43:28;7.68;;;1.95;;
6406;SDS011;3236;51.022;6.818;2023-02-18T09:45:59;3.00;;;1.45;;
6406;SDS011;3236;51.022;6.818;2023-02-18T09:48:30;3.70;;;1.85;;
6406;SDS011;3236;51.022;6.818;2023-02-18T09:51:01;6.10;;;2.00;;
6406;SDS011;3236;51.022;6.818;2023-02-18T09:53:29;9.90;;;2.00;;
6406;SDS011;3236;51.022;6.818;2023-02-18T09:55:56;6.65;;;1.75;;
6406;SDS011;3236;51.022;6.818;2023-02-18T09:58:28;7.50;;;1.98;;
6406;SDS011;3236;51.022;6.818;2023-02-18T10:00:59;9.75;;;1.83;;
6406;SDS011;3236;51.022;6.818;2023-02-18T10:03:31;7.38;;;2.55;;
6406;SDS011;3236;51.022;6.818;2023-02-18T10:06:00;15.02;;;2.75;;
6406;SDS011;3236;51.022;6.818;2023-02-18T10:08:32;11.57;;;2.65;;
6406;SDS011;3236;51.022;6.818;2023-02-18T10:11:01;5.78;;;2.00;;
6406;SDS011;3236;51.022;6.818;2023-02-18T10:13:29;11.05;;;3.00;;
6406;SDS011;3236;51.022;6.818;2023-02-18T10:15:57;10.48;;;2.75;;
6406;SDS011;3236;51.022;6.818;2023-02-18T10:18:26;11.90;;;2.45;;
6406;SDS011;3236;51.022;6.818;2023-02-18T10:21:06;12.25;;;3.22;;
6406;SDS011;3236;51.022;6.818;2023-02-18T10:23:37;7.25;;;1.85;;
6406;SDS011;3236;51.022;6.818;2023-02-18T10:26:06;5.40;;;1.50;;
6406;SDS011;3236;51.022;6.818;2023-02-18T10:28:38;6.25;;;1.83;;
6406;SDS011;3236;51.022;6.818;2023-02-18T10:31:07;8.32;;;2.47;;
6406;SDS011;3236;51.022;6.818;2023-02-18T10:33:35;20.10;;;2.17;;
6406;SDS011;3236;51.022;6.818;2023-02-18T10:36:22;11.48;;;1.77;;
6406;SDS011;3236;51.022;6.818;2023-02-18T10:41:59;6.43;;;1.58;;
6406;SDS011;3236;51.022;6.818;2023-02-18T10:44:32;7.50;;;2.10;;
6406;SDS011;3236;51.022;6.818;2023-02-18T10:47:11;4.38;;;2.40;;
6406;SDS011;3236;51.022;6.818;2023-02-18T10:52:30;5.55;;;1.92;;
6406;SDS011;3236;51.022;6.818;2023-02-18T10:55:06;7.65;;;2.08;;
6406;SDS011;3236;51.022;6.818;2023-02-18T10:57:36;5.68;;;1.42;;
6406;SDS011;3236;51.022;6.818;2023-02-18T11:00:14;7.38;;;1.92;;
6406;SDS011;3236;51.022;6.818;2023-02-18T11:02:44;3.05;;;1.80;;
6406;SDS011;3236;51.022;6.818;2023-02-18T11:05:17;7.15;;;2.13;;
6406;SDS011;3236;51.022;6.818;2023-02-18T11:07:50;3.83;;;2.30;;
6406;SDS011;3236;51.022;6.818;2023-02-18T11:10:22;10.18;;;3.30;;
6406;SDS011;3236;51.022;6.818;2023-02-18T11:12:55;6.22;;;2.15;;
6406;SDS011;3236;51.022;6.818;2023-02-18T11:15:23;9.65;;;2.63;;
6406;SDS011;3236;51.022;6.818;2023-02-18T11:17:53;6.55;;;3.00;;
6406;SDS011;3236;51.022;6.818;2023-02-18T11:20:27;8.00;;;4.63;;
6406;SDS011;3236;51.022;6.818;2023-02-18T11:22:59;9.40;;;3.28;;
6406;SDS011;3236;51.022;6.818;2023-02-18T11:25:52;4.18;;;2.33;;
6406;SDS011;3236;51.022;6.818;2023-02-18T11:28:26;6.63;;;2.97;;
6406;SDS011;3236;51.022;6.818;2023-02-18T11:30:58;5.03;;;1.85;;
6406;SDS011;3236;51.022;6.818;2023-02-18T11:33:30;6.45;;;2.92;;
6406;SDS011;3236;51.022;6.818;2023-02-18T11:36:02;8.65;;;3.28;;
6406;SDS011;3236;51.022;6.818;2023-02-18T11:38:34;7.65;;;3.85;;
6406;SDS011;3236;51.022;6.818;2023-02-18T11:41:05;6.38;;;3.70;;
6406;SDS011;3236;51.022;6.818;2023-02-18T11:43:34;4.47;;;3.20;;
6406;SDS011;3236;51.022;6.818;2023-02-18T11:48:33;6.43;;;2.72;;
6406;SDS011;3236;51.022;6.818;2023-02-18T11:51:01;6.35;;;2.95;;
6406;SDS011;3236;51.022;6.818;2023-02-18T11:53:30;2.15;;;1.92;;
6406;SDS011;3236;51.022;6.818;2023-02-18T11:55:59;3.70;;;3.22;;
6406;SDS011;3236;51.022;6.818;2023-02-18T11:58:27;5.22;;;2.85;;
6406;SDS011;3236;51.022;6.818;2023-02-18T12:01:05;3.42;;;2.15;;
6406;SDS011;3236;51.022;6.818;2023-02-18T12:03:40;6.03;;;2.30;;
6406;SDS011;3236;51.022;6.818;2023-02-18T12:06:13;5.88;;;3.20;;
6406;SDS011;3236;51.022;6.818;2023-02-18T12:08:46;4.63;;;2.75;;
6406;SDS011;3236;51.022;6.818;2023-02-18T12:11:25;4.20;;;3.33;;
6406;SDS011;3236;51.022;6.818;2023-02-18T12:13:57;5.97;;;3.47;;
6406;SDS011;3236;51.022;6.818;2023-02-18T12:16:27;3.33;;;2.58;;
6406;SDS011;3236;51.022;6.818;2023-02-18T12:19:03;8.27;;;3.80;;
6406;SDS011;3236;51.022;6.818;2023-02-18T12:21:52;5.53;;;2.85;;
6406;SDS011;3236;51.022;6.818;2023-02-18T12:24:36;6.93;;;2.83;;
6406;SDS011;3236;51.022;6.818;2023-02-18T12:27:15;3.05;;;1.55;;
6406;SDS011;3236;51.022;6.818;2023-02-18T12:29:51;3.75;;;2.33;;
6406;SDS011;3236;51.022;6.818;2023-02-18T12:32:31;5.70;;;2.17;;
6406;SDS011;3236;51.022;6.818;2023-02-18T12:35:16;2.50;;;1.95;;
6406;SDS011;3236;51.022;6.818;2023-02-18T12:38:05;3.63;;;2.35;;
6406;SDS011;3236;51.022;6.818;2023-02-18T12:40:53;2.58;;;1.63;;
6406;SDS011;3236;51.022;6.818;2023-02-18T12:43:34;11.00;;;2.85;;
6406;SDS011;3236;51.022;6.818;2023-02-18T12:46:21;3.00;;;1.83;;
6406;SDS011;3236;51.022;6.818;2023-02-18T12:52:11;3.95;;;2.05;;
6406;SDS011;3236;51.022;6.818;2023-02-18T12:54:57;4.17;;;1.83;;
6406;SDS011;3236;51.022;6.818;2023-02-18T12:57:46;3.72;;;3.28;;
6406;SDS011;3236;51.022;6.818;2023-02-18T13:00:26;5.10;;;2.95;;
6406;SDS011;3236;51.022;6.818;2023-02-18T13:06:08;8.23;;;3.35;;
6406;SDS011;3236;51.022;6.818;2023-02-18T13:08:49;5.82;;;2.67;;
6406;SDS011;3236;51.022;6.818;2023-02-18T13:11:35;5.90;;;2.30;;
6406;SDS011;3236;51.022;6.818;2023-02-18T13:14:12;6.88;;;3.65;;
6406;SDS011;3236;51.022;6.818;2023-02-18T13:16:47;3.35;;;2.30;;
6406;SDS011;3236;51.022;6.818;2023-02-18T13:19:19;5.00;;;2.00;;
6406;SDS011;3236;51.022;6.818;2023-02-18T13:21:48;3.45;;;2.78;;
6406;SDS011;3236;51.022;6.818;2023-02-18T13:24:20;5.82;;;2.70;;
6406;SDS011;3236;51.022;6.818;2023-02-18T13:26:52;7.72;;;2.35;;
6406;SDS011;3236;51.022;6.818;2023-02-18T13:29:27;4.05;;;2.30;;
6406;SDS011;3236;51.022;6.818;2023-02-18T13:32:03;10.73;;;3.63;;
6406;SDS011;3236;51.022;6.818;2023-02-18T13:34:36;6.88;;;2.42;;
6406;SDS011;3236;51.022;6.818;2023-02-18T13:37:13;4.75;;;2.53;;
6406;SDS011;3236;51.022;6.818;2023-02-18T13:39:48;5.82;;;2.35;;
6406;SDS011;3236;51.022;6.818;2023-02-18T13:42:31;8.68;;;2.88;;
6406;SDS011;3236;51.022;6.818;2023-02-18T13:47:39;4.65;;;2.10;;
6406;SDS011;3236;51.022;6.818;2023-02-18T13:50:27;3.50;;;1.90;;
6406;SDS011;3236;51.022;6.818;2023-02-18T13:53:13;3.50;;;2.65;;
6406;SDS011;3236;51.022;6.818;2023-02-18T13:55:49;7.55;;;3.35;;
6406;SDS011;3236;51.022;6.818;2023-02-18T13:58:47;7.13;;;3.30;;
6406;SDS011;3236;51.022;6.818;2023-02-18T14:01:21;7.05;;;4.10;;
6406;SDS011;3236;51.022;6.818;2023-02-18T14:04:00;4.35;;;3.28;;
6406;SDS011;3236;51.022;6.818;2023-02-18T14:06:29;5.63;;;3.53;;
6406;SDS011;3236;51.022;6.818;2023-02-18T14:12:21;6.45;;;3.90;;
6406;SDS011;3236;51.022;6.818;2023-02-18T14:14:52;3.72;;;2.45;;
6406;SDS011;3236;51.022;6.818;2023-02-18T14:28:56;3.38;;;1.98;;
6406;SDS011;3236;51.022;6.818;2023-02-18T14:37:28;3.72;;;2.00;;
6406;SDS011;3236;51.022;6.818;2023-02-18T14:43:19;4.55;;;2.28;;
6406;SDS011;3236;51.022;6.818;2023-02-18T14:46:09;4.22;;;2.63;;
6406;SDS011;3236;51.022;6.818;2023-02-18T14:51:48;6.93;;;3.22;;
6406;SDS011;3236;51.022;6.818;2023-02-18T14:54:18;7.85;;;3.08;;
6406;SDS011;3236;51.022;6.818;2023-02-18T14:56:52;6.93;;;2.90;;
6406;SDS011;3236;51.022;6.818;2023-02-18T14:59:21;6.47;;;3.00;;
6406;SDS011;3236;51.022;6.818;2023-02-18T15:01:52;4.32;;;2.97;;
6406;SDS011;3236;51.022;6.818;2023-02-18T15:04:19;4.43;;;2.83;;
6406;SDS011;3236;51.022;6.818;2023-02-18T15:06:53;4.78;;;3.58;;
6406;SDS011;3236;51.022;6.818;2023-02-18T15:09:26;3.55;;;2.95;;
6406;SDS011;3236;51.022;6.818;2023-02-18T15:11:55;5.45;;;3.97;;
6406;SDS011;3236;51.022;6.818;2023-02-18T15:14:30;6.45;;;4.43;;
6406;SDS011;3236;51.022;6.818;2023-02-18T15:16:59;7.68;;;4.85;;
6406;SDS011;3236;51.022;6.818;2023-02-18T15:19:28;11.57;;;7.07;;
6406;SDS011;3236;51.022;6.818;2023-02-18T15:22:00;14.02;;;6.75;;
6406;SDS011;3236;51.022;6.818;2023-02-18T15:24:32;4.10;;;3.03;;
6406;SDS011;3236;51.022;6.818;2023-02-18T15:27:02;5.03;;;3.25;;
6406;SDS011;3236;51.022;6.818;2023-02-18T15:29:36;6.60;;;4.30;;
6406;SDS011;3236;51.022;6.818;2023-02-18T15:32:11;6.13;;;4.25;;
6406;SDS011;3236;51.022;6.818;2023-02-18T15:34:42;8.95;;;4.57;;
6406;SDS011;3236;51.022;6.818;2023-02-18T15:37:10;7.65;;;4.60;;
6406;SDS011;3236;51.022;6.818;2023-02-18T15:39:42;6.35;;;4.75;;
6406;SDS011;3236;51.022;6.818;2023-02-18T15:42:12;6.57;;;4.35;;
6406;SDS011;3236;51.022;6.818;2023-02-18T15:44:45;7.68;;;5.95;;
6406;SDS011;3236;51.022;6.818;2023-02-18T15:47:14;7.70;;;5.28;;
6406;SDS011;3236;51.022;6.818;2023-02-18T15:49:44;4.97;;;4.20;;
6406;SDS011;3236;51.022;6.818;2023-02-18T15:52:13;5.03;;;4.22;;
6406;SDS011;3236;51.022;6.818;2023-02-18T15:54:42;9.18;;;5.28;;
6406;SDS011;3236;51.022;6.818;2023-02-18T15:57:12;4.03;;;3.63;;
6406;SDS011;3236;51.022;6.818;2023-02-18T15:59:45;3.38;;;2.28;;
6406;SDS011;3236;51.022;6.818;2023-02-18T16:02:20;3.67;;;2.42;;
6406;SDS011;3236;51.022;6.818;2023-02-18T16:04:50;2.92;;;2.60;;
6406;SDS011;3236;51.022;6.818;2023-02-18T16:07:21;6.03;;;3.13;;
6406;SDS011;3236;51.022;6.818;2023-02-18T16:09:51;3.25;;;2.50;;
6406;SDS011;3236;51.022;6.818;2023-02-18T16:12:37;2.15;;;1.95;;
6406;SDS011;3236;51.022;6.818;2023-02-18T16:15:05;4.00;;;2.15;;
6406;SDS011;3236;51.022;6.818;2023-02-18T16:17:32;2.95;;;2.63;;
6406;SDS011;3236;51.022;6.818;2023-02-18T16:20:00;3.08;;;2.10;;
6406;SDS011;3236;51.022;6.818;2023-02-18T16:22:42;2.78;;;1.77;;
6406;SDS011;3236;51.022;6.818;2023-02-18T16:30:14;2.35;;;1.50;;
6406;SDS011;3236;51.022;6.818;2023-02-18T16:32:53;4.38;;;2.65;;
6406;SDS011;3236;51.022;6.818;2023-02-18T16:35:20;3.22;;;2.17;;
6406;SDS011;3236;51.022;6.818;2023-02-18T16:37:48;3.92;;;2.47;;
6406;SDS011;3236;51.022;6.818;2023-02-18T16:40:24;3.97;;;2.35;;
6406;SDS011;3236;51.022;6.818;2023-02-18T16:42:52;4.95;;;3.00;;